createdAt,value
2019-02-24T00:01:15.224Z,103124.24
2019-02-24T00:03:48.857Z,103123.98
2019-02-24T00:06:22.153Z,103128.49
2019-02-24T00:08:55.864Z,103131.72
2019-02-24T00:11:28.459Z,103128.42
2019-02-24T00:14:03.037Z,103121.11
2019-02-24T00:16:32.360Z,103129.03
2019-02-24T00:19:03.833Z,103130.28
2019-02-24T00:21:36.982Z,103130.62
2019-02-24T00:24:09.174Z,103131.05
2019-02-24T00:26:38.291Z,103129.09
2019-02-24T00:29:08.617Z,103129.31
2019-02-24T00:31:42.956Z,103134.36
2019-02-24T00:34:13.624Z,103131.92
2019-02-24T00:36:47.500Z,103131.38
2019-02-24T00:39:16.213Z,103130.84
2019-02-24T00:41:46.912Z,103120.81
2019-02-24T00:44:18.685Z,103115.50
2019-02-24T00:46:51.021Z,103111.66
2019-02-24T00:49:21.566Z,103115.52
2019-02-24T00:51:56.000Z,103104.89
2019-02-24T00:54:26.167Z,103101.75
2019-02-24T00:56:58.762Z,103097.84
2019-02-24T00:59:32.037Z,103098.00
2019-02-24T01:02:05.162Z,103092.91
2019-02-24T01:04:39.081Z,103091.67
2019-02-24T01:07:10.031Z,103085.66
2019-02-24T01:09:40.246Z,103086.02
2019-02-24T01:12:15.772Z,103090.91
2019-02-24T01:14:49.431Z,103087.37
2019-02-24T01:17:20.204Z,103084.72
2019-02-24T01:19:52.051Z,103085.97
2019-02-24T01:22:22.173Z,103076.05
2019-02-24T01:24:54.931Z,103073.19
2019-02-24T01:27:28.210Z,103073.88
2019-02-24T01:30:01.032Z,103069.92
2019-02-24T01:32:36.861Z,103074.00
2019-02-24T01:35:10.548Z,103076.86
2019-02-24T01:37:39.955Z,103072.59
2019-02-24T01:40:13.724Z,103070.48
2019-02-24T01:42:45.410Z,103074.21
2019-02-24T01:45:20.444Z,103072.48
2019-02-24T01:47:49.872Z,103074.61
2019-02-24T01:50:20.505Z,103072.70
2019-02-24T01:52:50.946Z,103067.66
2019-02-24T01:55:22.741Z,103066.80
2019-02-24T01:57:54.742Z,103071.19
2019-02-24T02:00:30.889Z,103072.91
2019-02-24T02:03:00.008Z,103060.90
2019-02-24T02:05:30.504Z,103065.98
2019-02-24T02:07:59.271Z,103057.96
2019-02-24T02:10:27.999Z,103048.71
2019-02-24T02:12:57.491Z,103057.76
2019-02-24T02:15:29.783Z,103054.59
2019-02-24T02:18:01.707Z,103031.42
2019-02-24T02:20:33.791Z,103053.58
2019-02-24T02:23:05.693Z,103059.38
2019-02-24T02:25:38.456Z,103055.31
2019-02-24T02:28:07.438Z,103056.66
2019-02-24T02:30:36.826Z,103049.68
2019-02-24T02:33:08.782Z,103051.52
2019-02-24T02:35:38.007Z,103041.88
2019-02-24T02:38:10.364Z,103043.13
2019-02-24T02:40:39.107Z,103037.33
2019-02-24T02:43:09.578Z,103034.36
2019-02-24T02:45:43.292Z,103035.48
2019-02-24T02:48:11.852Z,103035.17
2019-02-24T02:50:43.078Z,103041.67
2019-02-24T02:53:16.307Z,103050.28
2019-02-24T02:55:51.056Z,103045.52
2019-02-24T02:58:23.424Z,103044.53
2019-02-24T03:00:54.162Z,103053.63
2019-02-24T03:03:43.839Z,103051.46
2019-02-24T03:06:26.542Z,103044.16
2019-02-24T03:09:00.101Z,103048.59
2019-02-24T03:11:32.555Z,103056.62
2019-02-24T03:14:02.781Z,103045.52
2019-02-24T03:16:37.851Z,103045.08
2019-02-24T03:19:11.832Z,103050.87
2019-02-24T03:21:45.733Z,103046.38
2019-02-24T03:24:14.896Z,103042.90
2019-02-24T03:26:45.727Z,103049.31
2019-02-24T03:29:21.361Z,103042.92
2019-02-24T03:31:50.081Z,103040.48
2019-02-24T03:34:23.666Z,103040.31
2019-02-24T03:36:52.518Z,103030.62
2019-02-24T03:39:21.770Z,103028.61
2019-02-24T03:41:52.193Z,103026.18
2019-02-24T03:44:20.731Z,103029.20
2019-02-24T03:46:54.724Z,103035.44
2019-02-24T03:49:29.511Z,103032.84
2019-02-24T03:51:59.645Z,103031.09
2019-02-24T03:54:31.181Z,103028.02
2019-02-24T03:57:04.621Z,103032.23
2019-02-24T03:59:32.961Z,103020.43
2019-02-24T04:02:05.353Z,103023.13
2019-02-24T04:04:34.847Z,103025.28
2019-02-24T04:07:03.632Z,103023.37
2019-02-24T04:09:34.021Z,103029.63
2019-02-24T04:12:06.687Z,103028.28
2019-02-24T04:14:40.547Z,103032.41
2019-02-24T04:17:11.279Z,103043.83
2019-02-24T04:19:42.330Z,103029.72
2019-02-24T04:22:11.412Z,103030.92
2019-02-24T04:24:43.114Z,103029.53
2019-02-24T04:27:12.073Z,103032.12
2019-02-24T04:29:43.384Z,103034.48
2019-02-24T04:32:13.318Z,103037.30
2019-02-24T04:34:42.208Z,103028.91
2019-02-24T04:37:12.802Z,103025.77
2019-02-24T04:39:49.695Z,103034.52
2019-02-24T04:42:20.103Z,103033.41
2019-02-24T04:44:53.269Z,103035.45
2019-02-24T04:47:22.479Z,103041.77
2019-02-24T04:49:52.507Z,103043.73
2019-02-24T04:52:24.630Z,103045.70
2019-02-24T04:55:02.848Z,103053.87
2019-02-24T04:57:36.467Z,103052.31
2019-02-24T05:00:09.949Z,103050.08
2019-02-24T05:02:44.535Z,103050.77
2019-02-24T05:05:13.775Z,103047.11
2019-02-24T05:07:43.303Z,103036.98
2019-02-24T05:10:15.820Z,103032.19
2019-02-24T05:12:50.062Z,103030.34
2019-02-24T05:15:23.701Z,103024.31
2019-02-24T05:17:53.261Z,103026.67
2019-02-24T05:20:26.690Z,103021.15
2019-02-24T05:22:54.806Z,103026.25
2019-02-24T05:25:27.010Z,103030.91
2019-02-24T05:27:59.960Z,103027.40
2019-02-24T05:30:28.915Z,103026.77
2019-02-24T05:32:59.301Z,103031.59
2019-02-24T05:35:33.529Z,103034.20
2019-02-24T05:38:03.757Z,103042.35
2019-02-24T05:40:35.031Z,103047.00
2019-02-24T05:43:05.254Z,103055.66
2019-02-24T05:45:36.347Z,103058.05
2019-02-24T05:48:09.200Z,103058.30
2019-02-24T05:50:41.323Z,103062.16
2019-02-24T05:53:11.900Z,103060.59
2019-02-24T05:55:44.779Z,103060.01
2019-02-24T05:58:17.805Z,103074.36
2019-02-24T06:00:50.320Z,103072.61
2019-02-24T06:03:21.531Z,103071.19
2019-02-24T06:05:50.657Z,103071.67
2019-02-24T06:08:22.659Z,103071.58
2019-02-24T06:10:51.632Z,103064.59
2019-02-24T06:13:20.680Z,103064.59
2019-02-24T06:15:50.784Z,103059.98
2019-02-24T06:18:20.274Z,103059.66
2019-02-24T06:20:58.657Z,103060.28
2019-02-24T06:23:29.108Z,103053.37
2019-02-24T06:26:01.040Z,103059.20
2019-02-24T06:28:29.669Z,103062.21
2019-02-24T06:31:01.831Z,103062.80
2019-02-24T06:33:31.192Z,103071.80
2019-02-24T06:36:02.893Z,103085.27
2019-02-24T06:38:31.870Z,103083.61
2019-02-24T06:41:05.507Z,103086.54
2019-02-24T06:43:36.098Z,103090.67
2019-02-24T06:46:06.884Z,103088.30
2019-02-24T06:48:37.697Z,103083.55
2019-02-24T06:51:14.087Z,103090.80
2019-02-24T06:53:47.783Z,103094.70
2019-02-24T06:56:17.038Z,103098.77
2019-02-24T06:58:45.940Z,103100.91
2019-02-24T07:01:16.243Z,103109.45
2019-02-24T07:03:45.703Z,103111.00
2019-02-24T07:06:19.558Z,103111.27
2019-02-24T07:08:53.578Z,103104.01
2019-02-24T07:11:22.685Z,103095.56
2019-02-24T07:13:55.167Z,103106.25
2019-02-24T07:16:26.399Z,103103.84
2019-02-24T07:18:58.597Z,103099.88
2019-02-24T07:21:31.664Z,103096.40
2019-02-24T07:24:04.531Z,103101.16
2019-02-24T07:26:34.649Z,103095.59
2019-02-24T07:29:08.712Z,103104.00
2019-02-24T07:31:43.454Z,103109.55
2019-02-24T07:34:13.096Z,103108.17
2019-02-24T07:36:43.851Z,103100.66
2019-02-24T07:39:15.627Z,103098.98
2019-02-24T07:41:46.866Z,103088.75
2019-02-24T07:44:16.060Z,103086.34
2019-02-24T07:46:48.021Z,103082.95
2019-02-24T07:49:17.299Z,103077.38
2019-02-24T07:51:47.319Z,103075.92
2019-02-24T07:54:22.646Z,103064.19
2019-02-24T07:56:54.697Z,103062.16
2019-02-24T07:59:29.868Z,103061.03
2019-02-24T08:01:58.767Z,103063.52
2019-02-24T08:04:27.699Z,103052.39
2019-02-24T08:07:00.238Z,103057.86
2019-02-24T08:09:30.966Z,103062.55
2019-02-24T08:12:12.467Z,103061.13
2019-02-24T08:14:46.382Z,103064.66
2019-02-24T08:17:28.038Z,103062.56
2019-02-24T08:20:00.522Z,103051.99
2019-02-24T08:22:33.010Z,103055.89
2019-02-24T08:25:08.190Z,103054.45
2019-02-24T08:27:39.272Z,103052.64
2019-02-24T08:30:09.090Z,103056.92
2019-02-24T08:32:39.919Z,103055.53
2019-02-24T08:35:13.877Z,103056.28
2019-02-24T08:38:06.595Z,103053.40
2019-02-24T08:40:36.726Z,103059.46
2019-02-24T08:43:10.718Z,103061.59
2019-02-24T08:45:39.970Z,103065.45
2019-02-24T08:48:13.175Z,103069.16
2019-02-24T08:50:46.838Z,103071.64
2019-02-24T08:53:18.747Z,103074.78
2019-02-24T08:55:49.066Z,103082.36
2019-02-24T08:58:29.025Z,103083.41
2019-02-24T09:01:01.249Z,103083.16
2019-02-24T09:03:33.617Z,103082.92
2019-02-24T09:06:04.838Z,103077.00
2019-02-24T09:08:44.852Z,103078.52
2019-02-24T09:11:19.384Z,103073.64
2019-02-24T09:13:49.859Z,103081.33
2019-02-24T09:16:24.261Z,103082.94
2019-02-24T09:18:54.707Z,103086.66
2019-02-24T09:21:24.999Z,103081.89
2019-02-24T09:23:57.030Z,103087.86
2019-02-24T09:26:28.937Z,103085.92
2019-02-24T09:29:00.795Z,103090.33
2019-02-24T09:31:37.136Z,103089.22
2019-02-24T09:34:05.709Z,103101.05
2019-02-24T09:36:39.273Z,103109.00
2019-02-24T09:39:14.599Z,103106.12
2019-02-24T09:41:52.261Z,103098.23
2019-02-24T09:44:22.621Z,103099.17
2019-02-24T09:46:56.575Z,103094.02
2019-02-24T09:49:27.047Z,103090.23
2019-02-24T09:51:56.093Z,103086.01
2019-02-24T09:54:24.821Z,103099.39
2019-02-24T09:56:58.397Z,103101.73
2019-02-24T09:59:33.697Z,103098.28
2019-02-24T10:02:06.531Z,103097.50
2019-02-24T10:04:41.581Z,103087.16
2019-02-24T10:07:10.319Z,103086.06
2019-02-24T10:09:41.129Z,103084.45
2019-02-24T10:12:11.969Z,103078.36
2019-02-24T10:14:41.894Z,103060.44
2019-02-24T10:17:18.450Z,103062.30
2019-02-24T10:19:49.121Z,103061.13
2019-02-24T10:22:20.231Z,103061.23
2019-02-24T10:24:50.464Z,103063.02
2019-02-24T10:27:24.491Z,103064.41
2019-02-24T10:29:56.633Z,103067.09
2019-02-24T10:32:27.476Z,103064.03
2019-02-24T10:35:02.684Z,103066.70
2019-02-24T10:37:32.632Z,103058.80
2019-02-24T10:40:04.979Z,103056.16
2019-02-24T10:42:35.383Z,103056.63
2019-02-24T10:45:06.292Z,103060.59
2019-02-24T10:47:39.490Z,103061.91
2019-02-24T10:50:12.129Z,103050.87
2019-02-24T10:52:41.460Z,103045.14
2019-02-24T10:55:13.540Z,103055.29
2019-02-24T10:57:44.398Z,103049.55
2019-02-24T11:00:19.162Z,103041.16
2019-02-24T11:02:47.974Z,103041.16
2019-02-24T11:05:17.464Z,103048.19
2019-02-24T11:07:46.195Z,103041.13
2019-02-24T11:10:22.118Z,103037.14
2019-02-24T11:12:51.326Z,103035.81
2019-02-24T11:15:20.713Z,103036.63
2019-02-24T11:17:51.245Z,103036.63
2019-02-24T11:20:21.176Z,103034.83
2019-02-24T11:22:57.801Z,103020.19
2019-02-24T11:25:30.300Z,103020.19
2019-02-24T11:27:59.195Z,103028.50
2019-02-24T11:30:29.639Z,103026.64
2019-02-24T11:32:58.191Z,103026.58
2019-02-24T11:35:30.161Z,103027.89
2019-02-24T11:38:06.439Z,103025.66
2019-02-24T11:40:35.368Z,103023.34
2019-02-24T11:43:04.474Z,103010.88
2019-02-24T11:45:35.299Z,103005.95
2019-02-24T11:48:05.239Z,102994.84
2019-02-24T11:50:43.200Z,102997.40
2019-02-24T11:53:15.195Z,102999.94
2019-02-24T11:55:45.848Z,102995.94
2019-02-24T11:58:14.595Z,103002.02
2019-02-24T12:00:43.127Z,103002.95
2019-02-24T12:03:12.138Z,102990.55
2019-02-24T12:05:40.689Z,102994.04
2019-02-24T12:08:11.318Z,102996.20
2019-02-24T12:10:40.187Z,102997.45
2019-02-24T12:13:11.020Z,103001.75
2019-02-24T12:15:41.455Z,103006.50
2019-02-24T12:18:12.175Z,103009.95
2019-02-24T12:20:41.245Z,103012.91
2019-02-24T12:23:14.621Z,103022.19
2019-02-24T12:25:43.565Z,103025.58
2019-02-24T12:28:13.124Z,103017.91
2019-02-24T12:30:48.672Z,103023.59
2019-02-24T12:33:16.868Z,103016.15
2019-02-24T12:35:50.657Z,103023.27
2019-02-24T12:38:20.741Z,103025.93
2019-02-24T12:40:50.975Z,103019.27
2019-02-24T12:43:20.130Z,103019.41
2019-02-24T12:45:50.308Z,103011.52
2019-02-24T12:48:20.509Z,103008.88
2019-02-24T12:50:51.053Z,103003.55
2019-02-24T12:53:21.589Z,103005.67
2019-02-24T12:55:51.875Z,103005.11
2019-02-24T12:58:26.974Z,102992.48
2019-02-24T13:00:57.766Z,102985.81
2019-02-24T13:03:26.645Z,102987.91
2019-02-24T13:05:55.559Z,102985.22
2019-02-24T13:08:27.884Z,102976.32
2019-02-24T13:10:58.108Z,102983.69
2019-02-24T13:13:27.100Z,102978.02
2019-02-24T13:16:02.222Z,102986.48
2019-02-24T13:18:37.381Z,102988.97
2019-02-24T13:21:09.567Z,102986.31
2019-02-24T13:23:39.949Z,102985.94
2019-02-24T13:26:08.864Z,102983.00
2019-02-24T13:28:50.095Z,102989.71
2019-02-24T13:31:13.602Z,102991.56
2019-02-24T13:33:42.515Z,102986.09
2019-02-24T13:36:13.977Z,102980.43
2019-02-24T13:38:44.369Z,102976.94
2019-02-24T13:41:12.930Z,102964.47
2019-02-24T13:43:41.448Z,102967.47
2019-02-24T13:46:10.834Z,102964.27
2019-02-24T13:48:42.705Z,102972.06
2019-02-24T13:51:14.157Z,102973.16
2019-02-24T13:53:42.869Z,102972.55
2019-02-24T13:56:14.296Z,102964.14
2019-02-24T13:58:45.014Z,102959.25
2019-02-24T14:01:18.794Z,102957.80
2019-02-24T14:03:46.574Z,102957.38
2019-02-24T14:06:20.794Z,102955.72
2019-02-24T14:08:49.702Z,102952.73
2019-02-24T14:11:22.210Z,102951.95
2019-02-24T14:13:51.173Z,102947.02
2019-02-24T14:16:23.024Z,102948.59
2019-02-24T14:18:52.264Z,102944.45
2019-02-24T14:21:25.033Z,102940.46
2019-02-24T14:23:56.992Z,102945.52
2019-02-24T14:26:29.689Z,102953.44
2019-02-24T14:29:02.665Z,102948.69
2019-02-24T14:31:36.364Z,102955.58
2019-02-24T14:34:06.880Z,102965.77
2019-02-24T14:36:35.732Z,102962.67
2019-02-24T14:39:05.003Z,102959.39
2019-02-24T14:41:35.737Z,102959.93
2019-02-24T14:44:10.549Z,102956.30
2019-02-24T14:46:42.026Z,102960.80
2019-02-24T14:49:10.993Z,102948.45
2019-02-24T14:51:42.255Z,102934.31
2019-02-24T14:54:12.148Z,102941.98
2019-02-24T14:56:41.074Z,102937.48
2019-02-24T14:59:12.249Z,102934.20
2019-02-24T15:01:44.073Z,102936.51
2019-02-24T15:04:12.979Z,102938.95
2019-02-24T15:06:41.840Z,102938.05
2019-02-24T15:09:12.369Z,102939.03
2019-02-24T15:11:41.153Z,102940.39
2019-02-24T15:14:11.466Z,102941.33
2019-02-24T15:16:42.060Z,102942.88
2019-02-24T15:19:12.856Z,102944.73
2019-02-24T15:21:43.108Z,102952.17
2019-02-24T15:24:11.955Z,102948.64
2019-02-24T15:26:42.255Z,102947.28
2019-02-24T15:29:17.595Z,102949.41
2019-02-24T15:31:49.463Z,102943.15
2019-02-24T15:34:18.895Z,102942.35
2019-02-24T15:36:48.312Z,102938.00
2019-02-24T15:39:24.775Z,102942.05
2019-02-24T15:41:53.345Z,102945.28
2019-02-24T15:44:22.896Z,102953.36
2019-02-24T15:46:53.191Z,102949.89
2019-02-24T15:49:21.740Z,102946.13
2019-02-24T15:51:53.937Z,102944.42
2019-02-24T15:54:22.829Z,102941.08
2019-02-24T15:56:53.505Z,102945.56
2019-02-24T15:59:27.353Z,102948.75
2019-02-24T16:01:58.124Z,102945.20
2019-02-24T16:04:29.061Z,102945.80
2019-02-24T16:07:01.352Z,102951.87
2019-02-24T16:09:34.543Z,102952.09
2019-02-24T16:12:03.470Z,102950.56
2019-02-24T16:14:36.954Z,102953.00
2019-02-24T16:17:05.517Z,102953.42
2019-02-24T16:19:41.882Z,102956.31
2019-02-24T16:22:17.005Z,102952.98
2019-02-24T16:24:47.259Z,102953.24
2019-02-24T16:27:19.521Z,102954.32
2019-02-24T16:29:50.132Z,102954.45
2019-02-24T16:32:21.616Z,102955.91
2019-02-24T16:34:50.833Z,102958.79
2019-02-24T16:37:24.564Z,102962.88
2019-02-24T16:39:53.323Z,102962.55
2019-02-24T16:42:25.090Z,102963.92
2019-02-24T16:44:57.617Z,102960.94
2019-02-24T16:47:28.109Z,102967.16
2019-02-24T16:49:59.049Z,102957.05
2019-02-24T16:52:27.606Z,102972.93
2019-02-24T16:55:01.284Z,102972.93
2019-02-24T16:57:29.635Z,102980.88
2019-02-24T17:00:07.215Z,102985.68
2019-02-24T17:02:37.517Z,102987.84
2019-02-24T17:05:12.038Z,102996.59
2019-02-24T17:07:43.035Z,102994.41
2019-02-24T17:10:13.011Z,102990.38
2019-02-24T17:12:44.369Z,102992.14
2019-02-24T17:15:16.946Z,102993.05
2019-02-24T17:17:49.996Z,102992.50
2019-02-24T17:20:21.397Z,102996.47
2019-02-24T17:22:53.870Z,102996.01
2019-02-24T17:25:23.981Z,103002.13
2019-02-24T17:28:06.300Z,103002.48
2019-02-24T17:30:35.063Z,103006.28
2019-02-24T17:33:07.206Z,103017.47
2019-02-24T17:35:42.566Z,103022.53
2019-02-24T17:38:15.261Z,103019.85
2019-02-24T17:40:45.994Z,103013.59
2019-02-24T17:43:14.974Z,103012.23
2019-02-24T17:45:48.798Z,103013.09
2019-02-24T17:48:22.432Z,103016.90
2019-02-24T17:50:51.281Z,103019.95
2019-02-24T17:53:24.085Z,103018.49
2019-02-24T17:55:53.478Z,103019.35
2019-02-24T17:58:22.287Z,103027.64
2019-02-24T18:00:59.540Z,103022.31
2019-02-24T18:03:39.030Z,103024.81
2019-02-24T18:06:06.640Z,103024.67
2019-02-24T18:08:35.582Z,103022.27
2019-02-24T18:11:05.147Z,103029.95
2019-02-24T18:13:35.078Z,103037.66
2019-02-24T18:16:06.019Z,103037.45
2019-02-24T18:18:36.938Z,103033.83
2019-02-24T18:21:08.640Z,103034.57
2019-02-24T18:23:40.332Z,103026.34
2019-02-24T18:26:14.692Z,103031.39
2019-02-24T18:28:46.087Z,103039.75
2019-02-24T18:31:20.769Z,103034.30
2019-02-24T18:33:52.841Z,103042.79
2019-02-24T18:36:23.775Z,103036.54
2019-02-24T18:38:55.444Z,103023.83
2019-02-24T18:41:30.043Z,103028.66
2019-02-24T18:44:01.769Z,103023.25
2019-02-24T18:46:31.021Z,103013.48
2019-02-24T18:49:01.254Z,103012.09
2019-02-24T18:51:33.657Z,103007.52
2019-02-24T18:54:02.343Z,103011.23
2019-02-24T18:56:36.015Z,103019.63
2019-02-24T18:59:04.899Z,103020.05
2019-02-24T19:01:38.558Z,103018.92
2019-02-24T19:04:12.267Z,103014.94
2019-02-24T19:06:40.779Z,103021.05
2019-02-24T19:09:17.224Z,103012.75
2019-02-24T19:11:50.367Z,103016.30
2019-02-24T19:14:27.165Z,103011.80
2019-02-24T19:16:58.280Z,103011.53
2019-02-24T19:19:28.651Z,103021.82
2019-02-24T19:21:59.219Z,103013.79
2019-02-24T19:24:30.696Z,103011.50
2019-02-24T19:26:59.764Z,103019.19
2019-02-24T19:29:32.253Z,103015.47
2019-02-24T19:32:00.964Z,103016.05
2019-02-24T19:34:31.199Z,103025.88
2019-02-24T19:37:01.928Z,103025.25
2019-02-24T19:39:32.245Z,103032.14
2019-02-24T19:42:06.454Z,103020.61
2019-02-24T19:44:39.964Z,103014.50
2019-02-24T19:47:09.451Z,103016.59
2019-02-24T19:49:38.358Z,103014.95
2019-02-24T19:52:07.322Z,103016.04
2019-02-24T19:54:37.771Z,103022.21
2019-02-24T19:57:11.678Z,103026.77
2019-02-24T19:59:40.907Z,103018.92
2019-02-24T20:02:12.412Z,103029.98
2019-02-24T20:04:43.000Z,103028.70
2019-02-24T20:07:14.001Z,103033.65
2019-02-24T20:09:43.563Z,103032.31
2019-02-24T20:12:15.668Z,103039.79
2019-02-24T20:14:47.923Z,103035.91
2019-02-24T20:17:19.825Z,103040.88
2019-02-24T20:19:50.605Z,103041.82
2019-02-24T20:22:21.295Z,103046.69
2019-02-24T20:24:53.093Z,103046.39
2019-02-24T20:27:22.197Z,103044.80
2019-02-24T20:29:54.463Z,103045.09
2019-02-24T20:32:24.780Z,103048.39
2019-02-24T20:34:53.891Z,103049.70
2019-02-24T20:37:22.435Z,103061.64
2019-02-24T20:39:50.969Z,103048.97
2019-02-24T20:42:19.838Z,103060.73
2019-02-24T20:44:53.803Z,103059.03
2019-02-24T20:47:25.800Z,103062.95
2019-02-24T20:49:57.500Z,103058.81
2019-02-24T20:52:27.857Z,103059.94
2019-02-24T20:54:58.743Z,103061.94
2019-02-24T20:57:27.499Z,103054.73
2019-02-24T20:59:59.434Z,103067.14
2019-02-24T21:02:31.706Z,103057.30
2019-02-24T21:05:02.211Z,103051.08
2019-02-24T21:07:32.661Z,103056.51
2019-02-24T21:10:10.109Z,103051.56
2019-02-24T21:12:44.865Z,103050.46
2019-02-24T21:15:16.958Z,103051.77
2019-02-24T21:17:47.467Z,103056.67
2019-02-24T21:20:25.101Z,103059.77
2019-02-24T21:22:58.335Z,103064.55
2019-02-24T21:25:30.678Z,103068.58
2019-02-24T21:28:02.606Z,103075.46
2019-02-24T21:30:39.870Z,103069.48
2019-02-24T21:33:12.186Z,103075.19
2019-02-24T21:35:42.893Z,103077.60
2019-02-24T21:38:15.363Z,103070.76
2019-02-24T21:40:47.482Z,103069.53
2019-02-24T21:43:19.883Z,103070.00
2019-02-24T21:45:51.889Z,103076.77
2019-02-24T21:48:27.098Z,103071.98
2019-02-24T21:50:56.363Z,103073.09
2019-02-24T21:53:25.204Z,103079.19
2019-02-24T21:55:59.298Z,103088.08
2019-02-24T21:58:30.258Z,103091.88
2019-02-24T22:01:02.539Z,103090.33
2019-02-24T22:03:31.424Z,103089.92
2019-02-24T22:06:03.622Z,103086.61
2019-02-24T22:08:39.486Z,103090.57
2019-02-24T22:11:14.819Z,103085.78
2019-02-24T22:13:47.537Z,103080.56
2019-02-24T22:16:17.774Z,103085.43
2019-02-24T22:19:07.212Z,103084.13
2019-02-24T22:21:37.493Z,103100.33
2019-02-24T22:24:10.360Z,103102.21
2019-02-24T22:26:46.903Z,103101.03
2019-02-24T22:29:15.681Z,103101.86
2019-02-24T22:31:49.741Z,103107.56
2019-02-24T22:34:22.400Z,103105.08
2019-02-24T22:36:54.717Z,103103.70
2019-02-24T22:39:29.570Z,103109.04
2019-02-24T22:42:03.446Z,103117.78
2019-02-24T22:44:37.641Z,103121.66
2019-02-24T22:47:06.549Z,103114.13
2019-02-24T22:49:42.277Z,103111.17
2019-02-24T22:52:11.199Z,103112.83
2019-02-24T22:54:41.903Z,103112.34
2019-02-24T22:57:13.883Z,103113.75
2019-02-24T22:59:45.393Z,103110.91
2019-02-24T23:02:15.064Z,103107.95
2019-02-24T23:04:44.050Z,103114.64
2019-02-24T23:07:17.121Z,103105.89
2019-02-24T23:09:49.201Z,103113.07
2019-02-24T23:12:22.545Z,103114.53
2019-02-24T23:14:51.984Z,103107.30
2019-02-24T23:17:27.479Z,103096.88
2019-02-24T23:19:58.362Z,103104.53
2019-02-24T23:22:37.871Z,103112.38
2019-02-24T23:25:10.491Z,103116.59
2019-02-24T23:27:40.225Z,103110.75
2019-02-24T23:30:19.818Z,103111.09
2019-02-24T23:32:53.080Z,103107.77
2019-02-24T23:35:27.336Z,103104.78
2019-02-24T23:38:01.889Z,103110.47
2019-02-24T23:40:37.648Z,103103.80
2019-02-24T23:43:13.079Z,103121.47
2019-02-24T23:45:45.259Z,103113.64
2019-02-24T23:48:17.747Z,103112.92
2019-02-24T23:50:52.687Z,103105.59
2019-02-24T23:53:23.609Z,103105.53
2019-02-24T23:55:55.463Z,103106.55
2019-02-24T23:58:27.622Z,103097.44
